Terminal Aerodrome Forecast
Issued by NWS Wakefield, VA

Home | Current Version | Previous Version | Text Only | Print | Product List | Glossary On
Versions: 1 2 3 4 5 6 7 8 9 10 11 12 13 14 15 16
067
FTUS41 KAKQ 232351 RRA
TAFECG
TAF
KECG 232351Z 2400/2424 16012G20KT P6SM SCT040 BKN080
     FM240600 17015G23KT 6SM -SHRA OVC050
     FM240700 18015G23KT 5SM SHRA OVC040 WS020/17045KT
     FM240900 18015G23KT 5SM SHRA OVC030
     FM241400 19014G22KT 6SM -SHRA OVC035
     FM241600 19014G22KT P6SM BKN040
     FM242100 20012KT P6SM BKN080=

USA.gov is the U.S. government's official web portal to all federal, state and local government web resources and services.